ΕΜΥ, Εθνική Μετεωρολογική Υπηρεσία - Δελτία Καιρού, Προγνώσεις

ΑΕΡΟΝΑΥΤΙΛΙΑ

GREEK AIRPORTS CODES

TAF LGHI 251700Z 2518/2603 02010KT 9999 FEW020=

EUROPEAN AIRPORTS CODES

TAF LGEL 251700Z 2518/2618 35006KT 9999 FEW025 BECMG 2610/2612 18010KT=